sensor_id;sensor_type;location;lat;lon;timestamp;temperature;humidity
71436;SHT31;59251;51.326;12.370;2022-08-01T00:02:02;20.49;76.36
71436;SHT31;59251;51.326;12.370;2022-08-01T00:04:27;20.35;77.21
71436;SHT31;59251;51.326;12.370;2022-08-01T00:06:52;20.38;77.01
71436;SHT31;59251;51.326;12.370;2022-08-01T00:09:18;20.42;77.06
71436;SHT31;59251;51.326;12.370;2022-08-01T00:11:43;20.35;77.48
71436;SHT31;59251;51.326;12.370;2022-08-01T00:14:09;20.29;77.82
71436;SHT31;59251;51.326;12.370;2022-08-01T00:16:35;20.38;77.34
71436;SHT31;59251;51.326;12.370;2022-08-01T00:19:01;20.55;76.54
71436;SHT31;59251;51.326;12.370;2022-08-01T00:21:26;20.50;76.88
71436;SHT31;59251;51.326;12.370;2022-08-01T00:23:52;20.39;77.67
71436;SHT31;59251;51.326;12.370;2022-08-01T00:26:17;20.46;77.18
71436;SHT31;59251;51.326;12.370;2022-08-01T00:28:43;20.45;77.78
71436;SHT31;59251;51.326;12.370;2022-08-01T00:31:08;20.69;76.40
71436;SHT31;59251;51.326;12.370;2022-08-01T00:33:34;20.52;77.02
71436;SHT31;59251;51.326;12.370;2022-08-01T00:35:59;20.65;76.77
71436;SHT31;59251;51.326;12.370;2022-08-01T00:38:25;20.65;76.87
71436;SHT31;59251;51.326;12.370;2022-08-01T00:40:50;20.57;77.09
71436;SHT31;59251;51.326;12.370;2022-08-01T00:43:16;20.53;77.33
71436;SHT31;59251;51.326;12.370;2022-08-01T00:45:41;20.56;77.50
71436;SHT31;59251;51.326;12.370;2022-08-01T00:48:07;20.42;77.58
71436;SHT31;59251;51.326;12.370;2022-08-01T00:50:33;20.62;76.90
71436;SHT31;59251;51.326;12.370;2022-08-01T00:52:59;20.55;77.29
71436;SHT31;59251;51.326;12.370;2022-08-01T00:55:29;20.63;76.59
71436;SHT31;59251;51.326;12.370;2022-08-01T00:57:56;20.57;76.87
71436;SHT31;59251;51.326;12.370;2022-08-01T01:00:22;20.63;76.56
71436;SHT31;59251;51.326;12.370;2022-08-01T01:02:48;20.60;76.76
71436;SHT31;59251;51.326;12.370;2022-08-01T01:05:13;20.46;77.26
71436;SHT31;59251;51.326;12.370;2022-08-01T01:08:02;20.14;78.95
71436;SHT31;59251;51.326;12.370;2022-08-01T01:10:49;20.40;77.76
71436;SHT31;59251;51.326;12.370;2022-08-01T01:13:35;20.52;77.26
71436;SHT31;59251;51.326;12.370;2022-08-01T01:16:09;20.45;77.32
71436;SHT31;59251;51.326;12.370;2022-08-01T01:18:44;20.33;77.48
71436;SHT31;59251;51.326;12.370;2022-08-01T01:21:28;20.42;77.34
71436;SHT31;59251;51.326;12.370;2022-08-01T01:26:52;20.55;76.55
71436;SHT31;59251;51.326;12.370;2022-08-01T01:29:40;20.56;76.56
71436;SHT31;59251;51.326;12.370;2022-08-01T01:32:20;20.57;76.39
71436;SHT31;59251;51.326;12.370;2022-08-01T01:34:49;20.57;76.14
71436;SHT31;59251;51.326;12.370;2022-08-01T01:37:20;20.59;76.12
71436;SHT31;59251;51.326;12.370;2022-08-01T01:39:49;20.46;76.39
71436;SHT31;59251;51.326;12.370;2022-08-01T01:42:16;20.49;75.89
71436;SHT31;59251;51.326;12.370;2022-08-01T01:44:43;20.59;75.27
71436;SHT31;59251;51.326;12.370;2022-08-01T01:47:12;20.67;74.70
71436;SHT31;59251;51.326;12.370;2022-08-01T01:49:40;20.77;74.50
71436;SHT31;59251;51.326;12.370;2022-08-01T01:52:07;20.69;74.70
71436;SHT31;59251;51.326;12.370;2022-08-01T01:54:35;20.67;74.69
71436;SHT31;59251;51.326;12.370;2022-08-01T01:57:03;20.56;74.84
71436;SHT31;59251;51.326;12.370;2022-08-01T01:59:30;20.73;74.45
71436;SHT31;59251;51.326;12.370;2022-08-01T02:01:58;20.50;74.66
71436;SHT31;59251;51.326;12.370;2022-08-01T02:04:25;20.65;74.26
71436;SHT31;59251;51.326;12.370;2022-08-01T02:06:52;20.33;75.40
71436;SHT31;59251;51.326;12.370;2022-08-01T02:09:20;20.33;75.39
71436;SHT31;59251;51.326;12.370;2022-08-01T02:11:47;20.33;75.20
71436;SHT31;59251;51.326;12.370;2022-08-01T02:14:14;20.57;74.32
71436;SHT31;59251;51.326;12.370;2022-08-01T02:16:42;20.43;74.94
71436;SHT31;59251;51.326;12.370;2022-08-01T02:19:08;20.40;74.85
71436;SHT31;59251;51.326;12.370;2022-08-01T02:24:20;20.39;74.91
71436;SHT31;59251;51.326;12.370;2022-08-01T02:26:49;20.38;74.76
71436;SHT31;59251;51.326;12.370;2022-08-01T02:29:24;20.46;74.50
71436;SHT31;59251;51.326;12.370;2022-08-01T02:31:54;20.46;74.52
71436;SHT31;59251;51.326;12.370;2022-08-01T02:34:20;20.43;74.52
71436;SHT31;59251;51.326;12.370;2022-08-01T02:36:47;20.30;75.04
71436;SHT31;59251;51.326;12.370;2022-08-01T02:39:15;20.33;75.09
71436;SHT31;59251;51.326;12.370;2022-08-01T02:41:45;20.35;75.04
71436;SHT31;59251;51.326;12.370;2022-08-01T02:44:22;20.30;75.37
71436;SHT31;59251;51.326;12.370;2022-08-01T02:46:57;20.25;75.82
71436;SHT31;59251;51.326;12.370;2022-08-01T02:49:31;20.28;75.70
71436;SHT31;59251;51.326;12.370;2022-08-01T02:51:59;20.28;76.02
71436;SHT31;59251;51.326;12.370;2022-08-01T02:54:26;20.29;76.19
71436;SHT31;59251;51.326;12.370;2022-08-01T02:56:53;20.19;76.80
71436;SHT31;59251;51.326;12.370;2022-08-01T02:59:21;20.22;76.88
71436;SHT31;59251;51.326;12.370;2022-08-01T03:01:52;20.29;76.99
71436;SHT31;59251;51.326;12.370;2022-08-01T03:04:20;20.19;77.43
71436;SHT31;59251;51.326;12.370;2022-08-01T03:06:47;20.21;77.72
71436;SHT31;59251;51.326;12.370;2022-08-01T03:09:14;20.30;77.85
71436;SHT31;59251;51.326;12.370;2022-08-01T03:11:41;20.22;78.10
71436;SHT31;59251;51.326;12.370;2022-08-01T03:14:08;20.26;78.43
71436;SHT31;59251;51.326;12.370;2022-08-01T03:16:38;20.24;78.64
71436;SHT31;59251;51.326;12.370;2022-08-01T03:19:04;20.21;79.02
71436;SHT31;59251;51.326;12.370;2022-08-01T03:21:31;20.09;79.52
71436;SHT31;59251;51.326;12.370;2022-08-01T03:24:00;20.05;79.75
71436;SHT31;59251;51.326;12.370;2022-08-01T03:26:28;20.02;80.39
71436;SHT31;59251;51.326;12.370;2022-08-01T03:29:02;20.05;80.75
71436;SHT31;59251;51.326;12.370;2022-08-01T03:31:34;20.21;80.03
71436;SHT31;59251;51.326;12.370;2022-08-01T03:34:00;19.88;81.25
71436;SHT31;59251;51.326;12.370;2022-08-01T03:36:26;20.12;80.30
71436;SHT31;59251;51.326;12.370;2022-08-01T03:38:57;20.22;79.99
71436;SHT31;59251;51.326;12.370;2022-08-01T03:41:25;20.19;79.96
71436;SHT31;59251;51.326;12.370;2022-08-01T03:43:56;20.25;80.15
71436;SHT31;59251;51.326;12.370;2022-08-01T03:46:29;20.30;79.95
71436;SHT31;59251;51.326;12.370;2022-08-01T03:48:58;20.17;80.78
71436;SHT31;59251;51.326;12.370;2022-08-01T03:51:25;20.18;81.15
71436;SHT31;59251;51.326;12.370;2022-08-01T03:53:53;20.28;80.29
71436;SHT31;59251;51.326;12.370;2022-08-01T03:56:21;20.25;80.23
71436;SHT31;59251;51.326;12.370;2022-08-01T03:58:48;20.22;80.61
71436;SHT31;59251;51.326;12.370;2022-08-01T04:01:14;20.09;81.43
71436;SHT31;59251;51.326;12.370;2022-08-01T04:03:41;20.19;81.45
71436;SHT31;59251;51.326;12.370;2022-08-01T04:06:07;19.98;83.17
71436;SHT31;59251;51.326;12.370;2022-08-01T04:08:36;19.84;83.37
71436;SHT31;59251;51.326;12.370;2022-08-01T04:11:02;19.80;84.66
71436;SHT31;59251;51.326;12.370;2022-08-01T04:13:27;19.67;86.08
71436;SHT31;59251;51.326;12.370;2022-08-01T04:15:53;19.64;86.28
71436;SHT31;59251;51.326;12.370;2022-08-01T04:18:18;19.57;86.57
71436;SHT31;59251;51.326;12.370;2022-08-01T04:20:46;19.59;86.64
71436;SHT31;59251;51.326;12.370;2022-08-01T04:23:12;19.70;86.28
71436;SHT31;59251;51.326;12.370;2022-08-01T04:25:40;19.74;85.90
71436;SHT31;59251;51.326;12.370;2022-08-01T04:28:10;19.59;87.28
71436;SHT31;59251;51.326;12.370;2022-08-01T04:30:42;19.64;86.41
71436;SHT31;59251;51.326;12.370;2022-08-01T04:33:10;19.78;85.40
71436;SHT31;59251;51.326;12.370;2022-08-01T04:35:38;19.69;86.00
71436;SHT31;59251;51.326;12.370;2022-08-01T04:38:07;19.47;86.82
71436;SHT31;59251;51.326;12.370;2022-08-01T04:40:34;19.51;87.08
71436;SHT31;59251;51.326;12.370;2022-08-01T04:43:01;19.69;86.36
71436;SHT31;59251;51.326;12.370;2022-08-01T04:45:27;19.50;87.39
71436;SHT31;59251;51.326;12.370;2022-08-01T04:47:53;19.47;87.75
71436;SHT31;59251;51.326;12.370;2022-08-01T04:50:19;19.50;86.74
71436;SHT31;59251;51.326;12.370;2022-08-01T04:52:47;19.50;87.76
71436;SHT31;59251;51.326;12.370;2022-08-01T04:55:12;19.69;86.83
71436;SHT31;59251;51.326;12.370;2022-08-01T04:57:41;19.81;85.78
71436;SHT31;59251;51.326;12.370;2022-08-01T05:00:08;19.80;85.99
71436;SHT31;59251;51.326;12.370;2022-08-01T05:02:34;19.67;86.46
71436;SHT31;59251;51.326;12.370;2022-08-01T05:04:59;19.77;85.76
71436;SHT31;59251;51.326;12.370;2022-08-01T05:07:25;19.74;85.94
71436;SHT31;59251;51.326;12.370;2022-08-01T05:09:51;19.75;86.28
71436;SHT31;59251;51.326;12.370;2022-08-01T05:12:16;19.74;86.62
71436;SHT31;59251;51.326;12.370;2022-08-01T05:14:42;19.74;86.95
71436;SHT31;59251;51.326;12.370;2022-08-01T05:17:08;20.11;85.15
71436;SHT31;59251;51.326;12.370;2022-08-01T05:19:35;20.29;84.91
71436;SHT31;59251;51.326;12.370;2022-08-01T05:22:03;20.26;86.09
71436;SHT31;59251;51.326;12.370;2022-08-01T05:24:33;20.19;85.54
71436;SHT31;59251;51.326;12.370;2022-08-01T05:26:59;20.21;85.64
71436;SHT31;59251;51.326;12.370;2022-08-01T05:29:25;20.12;85.87
71436;SHT31;59251;51.326;12.370;2022-08-01T05:31:51;20.21;85.29
71436;SHT31;59251;51.326;12.370;2022-08-01T05:34:17;20.22;85.15
71436;SHT31;59251;51.326;12.370;2022-08-01T05:36:43;20.25;85.40
71436;SHT31;59251;51.326;12.370;2022-08-01T05:39:08;20.24;85.91
71436;SHT31;59251;51.326;12.370;2022-08-01T05:41:35;20.24;86.10
71436;SHT31;59251;51.326;12.370;2022-08-01T05:44:01;20.57;84.79
71436;SHT31;59251;51.326;12.370;2022-08-01T05:46:26;20.56;84.66
71436;SHT31;59251;51.326;12.370;2022-08-01T05:48:52;20.87;84.43
71436;SHT31;59251;51.326;12.370;2022-08-01T05:51:17;21.24;82.91
71436;SHT31;59251;51.326;12.370;2022-08-01T05:53:43;21.42;81.59
71436;SHT31;59251;51.326;12.370;2022-08-01T05:56:09;21.34;82.47
71436;SHT31;59251;51.326;12.370;2022-08-01T05:58:35;21.66;81.05
71436;SHT31;59251;51.326;12.370;2022-08-01T06:01:00;21.65;80.67
71436;SHT31;59251;51.326;12.370;2022-08-01T06:03:26;21.62;81.09
71436;SHT31;59251;51.326;12.370;2022-08-01T06:05:51;21.59;81.40
71436;SHT31;59251;51.326;12.370;2022-08-01T06:08:18;21.56;81.49
71436;SHT31;59251;51.326;12.370;2022-08-01T06:10:43;21.70;81.19
71436;SHT31;59251;51.326;12.370;2022-08-01T06:13:09;21.63;81.05
71436;SHT31;59251;51.326;12.370;2022-08-01T06:15:34;21.48;81.62
71436;SHT31;59251;51.326;12.370;2022-08-01T06:18:00;21.20;83.05
71436;SHT31;59251;51.326;12.370;2022-08-01T06:20:25;21.43;82.16
71436;SHT31;59251;51.326;12.370;2022-08-01T06:22:51;21.12;82.60
71436;SHT31;59251;51.326;12.370;2022-08-01T06:25:19;21.07;82.98
71436;SHT31;59251;51.326;12.370;2022-08-01T06:27:45;21.15;82.96
71436;SHT31;59251;51.326;12.370;2022-08-01T06:30:10;21.15;82.88
71436;SHT31;59251;51.326;12.370;2022-08-01T06:32:36;21.18;82.69
71436;SHT31;59251;51.326;12.370;2022-08-01T06:35:02;21.07;83.65
71436;SHT31;59251;51.326;12.370;2022-08-01T06:37:32;20.95;83.97
71436;SHT31;59251;51.326;12.370;2022-08-01T06:40:05;20.72;85.30
71436;SHT31;59251;51.326;12.370;2022-08-01T06:42:31;21.11;83.75
71436;SHT31;59251;51.326;12.370;2022-08-01T06:45:04;21.22;83.20
71436;SHT31;59251;51.326;12.370;2022-08-01T06:47:30;21.12;84.10
71436;SHT31;59251;51.326;12.370;2022-08-01T06:49:55;21.07;84.06
71436;SHT31;59251;51.326;12.370;2022-08-01T06:52:21;21.41;83.01
71436;SHT31;59251;51.326;12.370;2022-08-01T06:54:46;21.53;82.69
71436;SHT31;59251;51.326;12.370;2022-08-01T06:57:12;21.67;81.84
71436;SHT31;59251;51.326;12.370;2022-08-01T06:59:37;21.53;82.29
71436;SHT31;59251;51.326;12.370;2022-08-01T07:02:03;21.62;82.58
71436;SHT31;59251;51.326;12.370;2022-08-01T07:04:29;21.65;82.29
71436;SHT31;59251;51.326;12.370;2022-08-01T07:06:54;21.32;83.50
71436;SHT31;59251;51.326;12.370;2022-08-01T07:09:19;21.67;82.30
71436;SHT31;59251;51.326;12.370;2022-08-01T07:11:45;21.76;81.82
71436;SHT31;59251;51.326;12.370;2022-08-01T07:14:10;22.18;80.04
71436;SHT31;59251;51.326;12.370;2022-08-01T07:16:36;22.44;79.31
71436;SHT31;59251;51.326;12.370;2022-08-01T07:19:01;22.27;80.12
71436;SHT31;59251;51.326;12.370;2022-08-01T07:21:26;22.66;78.89
71436;SHT31;59251;51.326;12.370;2022-08-01T07:23:52;22.45;78.96
71436;SHT31;59251;51.326;12.370;2022-08-01T07:26:17;22.78;77.15
71436;SHT31;59251;51.326;12.370;2022-08-01T07:28:43;22.79;76.81
71436;SHT31;59251;51.326;12.370;2022-08-01T07:31:08;22.88;77.60
71436;SHT31;59251;51.326;12.370;2022-08-01T07:33:33;23.02;76.41
71436;SHT31;59251;51.326;12.370;2022-08-01T07:36:00;23.10;76.68
71436;SHT31;59251;51.326;12.370;2022-08-01T07:38:25;22.40;77.57
71436;SHT31;59251;51.326;12.370;2022-08-01T07:40:51;22.99;75.68
71436;SHT31;59251;51.326;12.370;2022-08-01T07:43:16;23.13;75.35
71436;SHT31;59251;51.326;12.370;2022-08-01T07:45:41;22.84;75.91
71436;SHT31;59251;51.326;12.370;2022-08-01T07:48:07;22.33;77.97
71436;SHT31;59251;51.326;12.370;2022-08-01T07:50:33;22.48;76.84
71436;SHT31;59251;51.326;12.370;2022-08-01T07:52:59;22.18;77.24
71436;SHT31;59251;51.326;12.370;2022-08-01T07:55:25;22.16;78.78
71436;SHT31;59251;51.326;12.370;2022-08-01T07:57:51;21.56;80.93
71436;SHT31;59251;51.326;12.370;2022-08-01T08:00:17;21.39;82.31
71436;SHT31;59251;51.326;12.370;2022-08-01T08:02:43;21.30;82.60
71436;SHT31;59251;51.326;12.370;2022-08-01T08:05:09;21.12;82.67
71436;SHT31;59251;51.326;12.370;2022-08-01T08:07:34;21.39;82.07
71436;SHT31;59251;51.326;12.370;2022-08-01T08:10:00;21.53;81.92
71436;SHT31;59251;51.326;12.370;2022-08-01T08:12:25;21.41;82.43
71436;SHT31;59251;51.326;12.370;2022-08-01T08:14:51;21.28;82.32
71436;SHT31;59251;51.326;12.370;2022-08-01T08:17:16;21.52;81.14
71436;SHT31;59251;51.326;12.370;2022-08-01T08:19:42;21.48;81.56
71436;SHT31;59251;51.326;12.370;2022-08-01T08:22:07;21.56;81.43
71436;SHT31;59251;51.326;12.370;2022-08-01T08:24:34;22.04;79.63
71436;SHT31;59251;51.326;12.370;2022-08-01T08:27:00;22.34;78.68
71436;SHT31;59251;51.326;12.370;2022-08-01T08:29:27;22.49;78.43
71436;SHT31;59251;51.326;12.370;2022-08-01T08:31:55;22.34;77.87
71436;SHT31;59251;51.326;12.370;2022-08-01T08:34:20;22.65;77.15
71436;SHT31;59251;51.326;12.370;2022-08-01T08:36:46;22.36;77.02
71436;SHT31;59251;51.326;12.370;2022-08-01T08:39:11;23.07;74.16
71436;SHT31;59251;51.326;12.370;2022-08-01T08:41:37;22.57;75.26
71436;SHT31;59251;51.326;12.370;2022-08-01T08:44:04;22.64;74.48
71436;SHT31;59251;51.326;12.370;2022-08-01T08:46:31;22.75;74.18
71436;SHT31;59251;51.326;12.370;2022-08-01T08:49:02;22.76;75.12
71436;SHT31;59251;51.326;12.370;2022-08-01T08:51:30;23.14;73.73
71436;SHT31;59251;51.326;12.370;2022-08-01T08:53:56;23.39;72.38
71436;SHT31;59251;51.326;12.370;2022-08-01T08:56:23;23.71;71.24
71436;SHT31;59251;51.326;12.370;2022-08-01T08:58:50;23.92;71.16
71436;SHT31;59251;51.326;12.370;2022-08-01T09:01:16;24.35;69.89
71436;SHT31;59251;51.326;12.370;2022-08-01T09:03:43;24.15;69.59
71436;SHT31;59251;51.326;12.370;2022-08-01T09:06:09;24.43;68.81
71436;SHT31;59251;51.326;12.370;2022-08-01T09:08:35;23.75;70.53
71436;SHT31;59251;51.326;12.370;2022-08-01T09:11:00;24.13;69.41
71436;SHT31;59251;51.326;12.370;2022-08-01T09:13:26;23.74;70.84
71436;SHT31;59251;51.326;12.370;2022-08-01T09:15:53;23.75;70.87
71436;SHT31;59251;51.326;12.370;2022-08-01T09:18:38;23.65;70.91
71436;SHT31;59251;51.326;12.370;2022-08-01T09:21:09;23.44;70.56
71436;SHT31;59251;51.326;12.370;2022-08-01T09:23:48;23.50;69.80
71436;SHT31;59251;51.326;12.370;2022-08-01T09:26:16;23.31;70.16
71436;SHT31;59251;51.326;12.370;2022-08-01T09:28:42;23.65;69.30
71436;SHT31;59251;51.326;12.370;2022-08-01T09:31:11;23.74;68.59
71436;SHT31;59251;51.326;12.370;2022-08-01T09:33:52;23.95;67.88
71436;SHT31;59251;51.326;12.370;2022-08-01T09:36:23;24.01;67.73
71436;SHT31;59251;51.326;12.370;2022-08-01T09:38:50;23.82;68.74
71436;SHT31;59251;51.326;12.370;2022-08-01T09:41:16;23.89;68.88
71436;SHT31;59251;51.326;12.370;2022-08-01T09:43:49;23.61;70.37
71436;SHT31;59251;51.326;12.370;2022-08-01T09:46:15;23.89;69.53
71436;SHT31;59251;51.326;12.370;2022-08-01T09:49:01;23.36;71.41
71436;SHT31;59251;51.326;12.370;2022-08-01T09:51:38;23.88;69.55
71436;SHT31;59251;51.326;12.370;2022-08-01T09:54:05;23.42;70.41
71436;SHT31;59251;51.326;12.370;2022-08-01T09:56:41;23.74;70.12
71436;SHT31;59251;51.326;12.370;2022-08-01T09:59:10;24.39;67.16
71436;SHT31;59251;51.326;12.370;2022-08-01T10:01:55;24.55;66.08
71436;SHT31;59251;51.326;12.370;2022-08-01T10:04:21;24.61;66.10
71436;SHT31;59251;51.326;12.370;2022-08-01T10:06:49;24.41;66.39
71436;SHT31;59251;51.326;12.370;2022-08-01T10:09:27;24.40;67.38
71436;SHT31;59251;51.326;12.370;2022-08-01T10:11:54;24.19;67.87
71436;SHT31;59251;51.326;12.370;2022-08-01T10:14:21;24.32;67.40
71436;SHT31;59251;51.326;12.370;2022-08-01T10:16:47;23.86;68.99
71436;SHT31;59251;51.326;12.370;2022-08-01T10:19:13;24.41;67.15
71436;SHT31;59251;51.326;12.370;2022-08-01T10:21:39;24.70;65.05
71436;SHT31;59251;51.326;12.370;2022-08-01T10:24:05;23.81;66.23
71436;SHT31;59251;51.326;12.370;2022-08-01T10:26:33;24.23;65.65
71436;SHT31;59251;51.326;12.370;2022-08-01T10:28:59;25.03;63.30
71436;SHT31;59251;51.326;12.370;2022-08-01T10:31:25;25.41;61.68
71436;SHT31;59251;51.326;12.370;2022-08-01T10:33:55;25.11;62.09
71436;SHT31;59251;51.326;12.370;2022-08-01T10:36:22;24.94;62.66
71436;SHT31;59251;51.326;12.370;2022-08-01T10:38:49;25.38;60.78
71436;SHT31;59251;51.326;12.370;2022-08-01T10:41:15;25.15;61.33
71436;SHT31;59251;51.326;12.370;2022-08-01T10:43:43;25.11;60.90
71436;SHT31;59251;51.326;12.370;2022-08-01T10:46:09;24.92;61.65
71436;SHT31;59251;51.326;12.370;2022-08-01T10:48:45;25.33;60.67
71436;SHT31;59251;51.326;12.370;2022-08-01T10:51:13;25.32;59.91
71436;SHT31;59251;51.326;12.370;2022-08-01T10:53:46;25.49;60.14
71436;SHT31;59251;51.326;12.370;2022-08-01T10:56:12;25.58;58.91
71436;SHT31;59251;51.326;12.370;2022-08-01T10:58:39;25.70;58.52
71436;SHT31;59251;51.326;12.370;2022-08-01T11:04:12;26.21;58.09
71436;SHT31;59251;51.326;12.370;2022-08-01T11:06:42;25.86;58.34
71436;SHT31;59251;51.326;12.370;2022-08-01T11:14:21;25.56;59.01
71436;SHT31;59251;51.326;12.370;2022-08-01T11:16:46;25.76;58.61
71436;SHT31;59251;51.326;12.370;2022-08-01T11:19:11;25.98;57.46
71436;SHT31;59251;51.326;12.370;2022-08-01T11:27:22;27.31;54.26
71436;SHT31;59251;51.326;12.370;2022-08-01T11:32:52;26.07;54.70
71436;SHT31;59251;51.326;12.370;2022-08-01T11:35:19;26.39;55.52
71436;SHT31;59251;51.326;12.370;2022-08-01T11:37:46;26.34;55.91
71436;SHT31;59251;51.326;12.370;2022-08-01T11:40:26;26.44;56.23
71436;SHT31;59251;51.326;12.370;2022-08-01T11:45:52;26.29;56.29
71436;SHT31;59251;51.326;12.370;2022-08-01T11:48:22;27.04;54.64
71436;SHT31;59251;51.326;12.370;2022-08-01T11:50:50;27.84;53.15
71436;SHT31;59251;51.326;12.370;2022-08-01T11:53:16;28.09;52.19
71436;SHT31;59251;51.326;12.370;2022-08-01T11:55:51;28.40;52.13
71436;SHT31;59251;51.326;12.370;2022-08-01T11:58:22;28.32;52.98
71436;SHT31;59251;51.326;12.370;2022-08-01T12:00:56;27.72;55.55
71436;SHT31;59251;51.326;12.370;2022-08-01T12:03:27;26.99;58.05
71436;SHT31;59251;51.326;12.370;2022-08-01T12:05:53;26.31;60.26
71436;SHT31;59251;51.326;12.370;2022-08-01T12:08:30;26.87;59.55
71436;SHT31;59251;51.326;12.370;2022-08-01T12:10:58;26.62;59.46
71436;SHT31;59251;51.326;12.370;2022-08-01T12:13:23;26.60;58.61
71436;SHT31;59251;51.326;12.370;2022-08-01T12:15:49;27.03;58.09
71436;SHT31;59251;51.326;12.370;2022-08-01T12:18:15;27.16;58.14
71436;SHT31;59251;51.326;12.370;2022-08-01T12:20:42;27.17;57.60
71436;SHT31;59251;51.326;12.370;2022-08-01T12:23:11;27.45;55.92
71436;SHT31;59251;51.326;12.370;2022-08-01T12:25:37;27.08;56.13
71436;SHT31;59251;51.326;12.370;2022-08-01T12:28:06;27.22;56.25
71436;SHT31;59251;51.326;12.370;2022-08-01T12:30:33;27.07;56.31
71436;SHT31;59251;51.326;12.370;2022-08-01T12:33:01;27.22;56.20
71436;SHT31;59251;51.326;12.370;2022-08-01T12:35:29;28.27;53.47
71436;SHT31;59251;51.326;12.370;2022-08-01T12:37:57;27.61;54.83
71436;SHT31;59251;51.326;12.370;2022-08-01T12:40:26;29.18;51.40
71436;SHT31;59251;51.326;12.370;2022-08-01T12:42:53;28.40;53.85
71436;SHT31;59251;51.326;12.370;2022-08-01T12:45:31;26.72;55.48
71436;SHT31;59251;51.326;12.370;2022-08-01T12:47:58;28.75;52.42
71436;SHT31;59251;51.326;12.370;2022-08-01T12:50:29;30.24;48.09
71436;SHT31;59251;51.326;12.370;2022-08-01T12:52:56;30.04;48.92
71436;SHT31;59251;51.326;12.370;2022-08-01T12:55:26;28.78;51.13
71436;SHT31;59251;51.326;12.370;2022-08-01T12:58:08;29.35;49.89
71436;SHT31;59251;51.326;12.370;2022-08-01T13:00:35;29.97;48.80
71436;SHT31;59251;51.326;12.370;2022-08-01T13:03:05;30.33;48.73
71436;SHT31;59251;51.326;12.370;2022-08-01T13:05:53;30.08;48.72
71436;SHT31;59251;51.326;12.370;2022-08-01T13:08:34;30.45;47.30
71436;SHT31;59251;51.326;12.370;2022-08-01T13:11:02;30.39;48.11
71436;SHT31;59251;51.326;12.370;2022-08-01T13:13:47;31.25;46.59
71436;SHT31;59251;51.326;12.370;2022-08-01T13:16:13;31.30;45.30
71436;SHT31;59251;51.326;12.370;2022-08-01T13:18:39;29.50;48.19
71436;SHT31;59251;51.326;12.370;2022-08-01T13:21:20;30.45;47.30
71436;SHT31;59251;51.326;12.370;2022-08-01T13:29:19;30.90;46.76
71436;SHT31;59251;51.326;12.370;2022-08-01T13:31:45;30.24;48.10
71436;SHT31;59251;51.326;12.370;2022-08-01T13:34:11;28.92;51.62
71436;SHT31;59251;51.326;12.370;2022-08-01T13:36:37;30.04;48.67
71436;SHT31;59251;51.326;12.370;2022-08-01T13:39:04;30.00;49.15
71436;SHT31;59251;51.326;12.370;2022-08-01T13:41:48;29.81;49.11
71436;SHT31;59251;51.326;12.370;2022-08-01T13:44:14;30.66;47.41
71436;SHT31;59251;51.326;12.370;2022-08-01T13:46:41;31.66;44.59
71436;SHT31;59251;51.326;12.370;2022-08-01T13:49:07;32.60;43.24
71436;SHT31;59251;51.326;12.370;2022-08-01T13:51:33;29.40;49.63
71436;SHT31;59251;51.326;12.370;2022-08-01T13:53:59;30.88;46.79
71436;SHT31;59251;51.326;12.370;2022-08-01T13:56:25;31.04;45.98
71436;SHT31;59251;51.326;12.370;2022-08-01T13:58:53;31.06;45.72
71436;SHT31;59251;51.326;12.370;2022-08-01T14:01:18;31.17;45.57
71436;SHT31;59251;51.326;12.370;2022-08-01T14:03:43;30.40;46.09
71436;SHT31;59251;51.326;12.370;2022-08-01T14:06:09;28.72;49.52
71436;SHT31;59251;51.326;12.370;2022-08-01T14:08:35;30.05;46.88
71436;SHT31;59251;51.326;12.370;2022-08-01T14:11:00;29.14;48.90
71436;SHT31;59251;51.326;12.370;2022-08-01T14:13:26;30.08;47.89
71436;SHT31;59251;51.326;12.370;2022-08-01T14:15:51;29.84;47.00
71436;SHT31;59251;51.326;12.370;2022-08-01T14:18:17;29.40;47.33
71436;SHT31;59251;51.326;12.370;2022-08-01T14:20:43;29.32;47.78
71436;SHT31;59251;51.326;12.370;2022-08-01T14:23:09;30.65;45.32
71436;SHT31;59251;51.326;12.370;2022-08-01T14:25:37;30.66;45.44
71436;SHT31;59251;51.326;12.370;2022-08-01T14:28:03;28.65;49.23
71436;SHT31;59251;51.326;12.370;2022-08-01T14:30:29;27.72;52.55
71436;SHT31;59251;51.326;12.370;2022-08-01T14:32:54;29.49;48.41
71436;SHT31;59251;51.326;12.370;2022-08-01T14:35:20;29.94;47.31
71436;SHT31;59251;51.326;12.370;2022-08-01T14:37:45;28.82;49.77
71436;SHT31;59251;51.326;12.370;2022-08-01T14:40:11;31.17;45.63
71436;SHT31;59251;51.326;12.370;2022-08-01T14:42:39;30.91;45.18
71436;SHT31;59251;51.326;12.370;2022-08-01T14:45:06;30.36;46.31
71436;SHT31;59251;51.326;12.370;2022-08-01T14:47:40;30.69;45.72
71436;SHT31;59251;51.326;12.370;2022-08-01T14:50:09;30.97;45.05
71436;SHT31;59251;51.326;12.370;2022-08-01T14:52:36;30.35;46.06
71436;SHT31;59251;51.326;12.370;2022-08-01T14:55:03;29.26;47.94
71436;SHT31;59251;51.326;12.370;2022-08-01T14:57:29;31.31;43.61
71436;SHT31;59251;51.326;12.370;2022-08-01T14:59:55;30.42;45.31
71436;SHT31;59251;51.326;12.370;2022-08-01T15:02:21;30.35;45.37
71436;SHT31;59251;51.326;12.370;2022-08-01T15:04:47;31.11;44.23
71436;SHT31;59251;51.326;12.370;2022-08-01T15:07:13;31.03;44.50
71436;SHT31;59251;51.326;12.370;2022-08-01T15:09:38;31.62;42.48
71436;SHT31;59251;51.326;12.370;2022-08-01T15:12:04;30.90;44.78
71436;SHT31;59251;51.326;12.370;2022-08-01T15:14:30;32.44;40.98
71436;SHT31;59251;51.326;12.370;2022-08-01T15:17:23;32.21;41.72
71436;SHT31;59251;51.326;12.370;2022-08-01T15:19:52;30.83;44.68
71436;SHT31;59251;51.326;12.370;2022-08-01T15:22:18;31.35;44.26
71436;SHT31;59251;51.326;12.370;2022-08-01T15:24:43;30.02;45.87
71436;SHT31;59251;51.326;12.370;2022-08-01T15:27:09;31.34;43.82
71436;SHT31;59251;51.326;12.370;2022-08-01T15:29:36;31.55;42.73
71436;SHT31;59251;51.326;12.370;2022-08-01T15:32:03;31.11;44.44
71436;SHT31;59251;51.326;12.370;2022-08-01T15:34:29;30.63;45.61
71436;SHT31;59251;51.326;12.370;2022-08-01T15:36:55;31.37;44.26
71436;SHT31;59251;51.326;12.370;2022-08-01T15:39:21;30.97;44.32
71436;SHT31;59251;51.326;12.370;2022-08-01T15:41:46;29.70;46.70
71436;SHT31;59251;51.326;12.370;2022-08-01T15:44:12;28.57;48.93
71436;SHT31;59251;51.326;12.370;2022-08-01T15:46:38;29.83;45.55
71436;SHT31;59251;51.326;12.370;2022-08-01T15:49:06;29.57;46.49
71436;SHT31;59251;51.326;12.370;2022-08-01T15:51:32;28.56;48.64